createdAt,value
2022-10-31T00:01:56.302Z,101107.13
2022-10-31T00:04:24.275Z,101101.41
2022-10-31T00:06:52.221Z,101093.19
2022-10-31T00:09:20.314Z,101100.75
2022-10-31T00:11:48.196Z,101108.56
2022-10-31T00:14:16.142Z,101108.19
2022-10-31T00:16:45.394Z,101114.66
2022-10-31T00:19:13.314Z,101115.88
2022-10-31T00:21:41.311Z,101110.00
2022-10-31T00:24:09.998Z,101112.25
2022-10-31T00:26:37.916Z,101102.53
2022-10-31T00:29:05.986Z,101104.56
2022-10-31T00:31:35.214Z,101108.84
2022-10-31T00:34:05.010Z,101106.00
2022-10-31T00:36:32.948Z,101103.28
2022-10-31T00:39:03.801Z,101105.03
2022-10-31T00:41:31.773Z,101106.19
2022-10-31T00:43:59.839Z,101110.75
2022-10-31T00:46:27.757Z,101110.16
2022-10-31T00:48:55.793Z,101111.31
2022-10-31T00:51:25.221Z,101122.34
2022-10-31T00:53:53.260Z,101125.50
2022-10-31T00:56:21.284Z,101128.22
2022-10-31T00:58:49.508Z,101123.97
2022-10-31T01:01:17.563Z,101127.72
2022-10-31T01:03:45.628Z,101133.00
2022-10-31T01:06:15.467Z,101124.81
2022-10-31T01:08:45.295Z,101132.13
2022-10-31T01:11:18.895Z,101126.69
2022-10-31T01:13:47.229Z,101134.00
2022-10-31T01:16:17.636Z,101145.34
2022-10-31T01:18:45.955Z,101142.59
2022-10-31T01:21:16.428Z,101135.16
2022-10-31T01:23:48.122Z,101134.03
2022-10-31T01:26:18.130Z,101128.44
2022-10-31T01:28:48.517Z,101128.25
2022-10-31T01:31:18.032Z,101131.13
2022-10-31T01:33:46.240Z,101132.69
2022-10-31T01:36:19.938Z,101120.53
2022-10-31T01:38:53.505Z,101119.50
2022-10-31T01:41:24.261Z,101122.22
2022-10-31T01:44:01.358Z,101117.50
2022-10-31T01:46:34.590Z,101117.50
2022-10-31T01:49:04.690Z,101123.13
2022-10-31T01:51:41.760Z,101114.97
2022-10-31T01:54:17.804Z,101115.81
2022-10-31T01:56:50.369Z,101104.63
2022-10-31T01:59:21.987Z,101109.69
2022-10-31T02:01:54.205Z,101110.06
2022-10-31T02:04:25.139Z,101106.53
2022-10-31T02:07:00.955Z,101104.13
2022-10-31T02:09:34.408Z,101094.34
2022-10-31T02:12:04.469Z,101096.38
2022-10-31T02:14:33.812Z,101092.09
2022-10-31T02:17:10.317Z,101085.50
2022-10-31T02:19:49.094Z,101096.38
2022-10-31T02:22:23.517Z,101092.94
2022-10-31T02:25:05.012Z,101085.91
2022-10-31T02:28:10.617Z,101085.19
2022-10-31T02:30:58.067Z,101081.06
2022-10-31T02:33:28.334Z,101085.09
2022-10-31T02:36:06.933Z,101076.91
2022-10-31T02:38:47.893Z,101090.34
2022-10-31T02:41:29.887Z,101088.47
2022-10-31T02:44:10.595Z,101098.22
2022-10-31T02:46:49.017Z,101106.25
2022-10-31T02:49:28.940Z,101098.38
2022-10-31T02:51:57.287Z,101103.09
2022-10-31T02:54:27.355Z,101106.69
2022-10-31T02:57:01.955Z,101097.97
2022-10-31T02:59:32.371Z,101098.69
2022-10-31T03:02:20.638Z,101108.28
2022-10-31T03:05:04.623Z,101113.00
2022-10-31T03:07:40.788Z,101113.16
2022-10-31T03:10:18.762Z,101106.41
2022-10-31T03:12:55.489Z,101114.13
2022-10-31T03:15:27.619Z,101122.88
2022-10-31T03:18:02.125Z,101113.41
2022-10-31T03:20:38.718Z,101114.13
2022-10-31T03:23:13.215Z,101112.66
2022-10-31T03:25:43.085Z,101122.84
2022-10-31T03:28:14.006Z,101122.94
2022-10-31T03:30:46.358Z,101117.84
2022-10-31T03:33:23.571Z,101113.50
2022-10-31T03:35:54.746Z,101113.38
2022-10-31T03:38:24.276Z,101125.84
2022-10-31T03:40:58.091Z,101119.94
2022-10-31T03:43:34.329Z,101116.34
2022-10-31T03:46:05.152Z,101120.94
2022-10-31T03:48:35.820Z,101124.81
2022-10-31T03:51:12.788Z,101129.84
2022-10-31T03:53:47.587Z,101129.00
2022-10-31T03:56:21.729Z,101133.72
2022-10-31T03:58:57.694Z,101129.00
2022-10-31T04:01:28.360Z,101122.28
2022-10-31T04:03:59.813Z,101130.44
2022-10-31T04:06:28.827Z,101125.56
2022-10-31T04:09:01.399Z,101123.13
2022-10-31T04:11:33.586Z,101131.00
2022-10-31T04:14:23.478Z,101131.00
2022-10-31T04:16:52.289Z,101131.84
2022-10-31T04:19:26.369Z,101133.72
2022-10-31T04:21:54.477Z,101131.16
2022-10-31T04:24:22.741Z,101126.56
2022-10-31T04:26:50.725Z,101129.84
2022-10-31T04:29:21.272Z,101125.97
2022-10-31T04:31:49.325Z,101129.00
2022-10-31T04:34:17.602Z,101129.72
2022-10-31T04:36:47.172Z,101138.88
2022-10-31T04:39:22.683Z,101128.25
2022-10-31T04:42:16.284Z,101136.56
2022-10-31T04:44:44.304Z,101131.72
2022-10-31T04:47:12.292Z,101133.59
2022-10-31T04:49:40.290Z,101134.50
2022-10-31T04:52:11.079Z,101143.94
2022-10-31T04:54:39.034Z,101138.75
2022-10-31T04:57:42.833Z,101146.06
2022-10-31T05:00:12.394Z,101141.34
2022-10-31T05:02:46.134Z,101147.50
2022-10-31T05:05:14.798Z,101146.34
2022-10-31T05:07:45.601Z,101145.47
2022-10-31T05:10:17.264Z,101149.81
2022-10-31T05:12:49.183Z,101141.06
2022-10-31T05:15:35.838Z,101151.38
2022-10-31T05:18:23.929Z,101147.38
2022-10-31T05:20:54.744Z,101146.38
2022-10-31T05:23:31.330Z,101154.25
2022-10-31T05:26:01.292Z,101154.53
2022-10-31T05:28:29.327Z,101152.94
2022-10-31T05:30:57.391Z,101161.41
2022-10-31T05:33:25.956Z,101149.75
2022-10-31T05:36:12.456Z,101161.66
2022-10-31T05:38:47.906Z,101158.25
2022-10-31T05:41:25.338Z,101161.16
2022-10-31T05:43:56.485Z,101164.28
2022-10-31T05:46:29.860Z,101163.72
2022-10-31T05:49:16.295Z,101161.72
2022-10-31T05:52:02.974Z,101160.72
2022-10-31T05:54:48.734Z,101166.59
2022-10-31T05:57:16.687Z,101172.75
2022-10-31T05:59:44.638Z,101179.50
2022-10-31T06:02:12.616Z,101165.72
2022-10-31T06:05:16.006Z,101169.91
2022-10-31T06:07:44.684Z,101168.03
2022-10-31T06:10:14.910Z,101168.47
2022-10-31T06:12:43.087Z,101172.91
2022-10-31T06:15:25.090Z,101178.91
2022-10-31T06:18:03.214Z,101175.44
2022-10-31T06:20:35.603Z,101179.03
2022-10-31T06:23:05.990Z,101180.63
2022-10-31T06:25:37.787Z,101180.59
2022-10-31T06:28:06.900Z,101186.03
2022-10-31T06:30:45.933Z,101188.16
2022-10-31T06:33:13.891Z,101193.78
2022-10-31T06:35:47.960Z,101195.34
2022-10-31T06:38:17.429Z,101186.44
2022-10-31T06:40:46.820Z,101203.44
2022-10-31T06:43:37.356Z,101201.47
2022-10-31T06:46:28.071Z,101203.59
2022-10-31T06:49:16.281Z,101203.16
2022-10-31T06:51:52.335Z,101203.72
2022-10-31T06:54:20.322Z,101205.00
2022-10-31T06:56:50.087Z,101210.63
2022-10-31T06:59:18.803Z,101217.81
2022-10-31T07:02:13.528Z,101211.78
2022-10-31T07:04:43.999Z,101210.63
2022-10-31T07:07:15.331Z,101216.06
2022-10-31T07:09:43.989Z,101213.34
2022-10-31T07:12:18.067Z,101210.88
2022-10-31T07:14:55.344Z,101211.91
2022-10-31T07:17:29.749Z,101213.03
2022-10-31T07:20:00.792Z,101217.03
2022-10-31T07:22:34.877Z,101216.31
2022-10-31T07:25:04.956Z,101220.59
2022-10-31T07:27:55.422Z,101216.31
2022-10-31T07:30:23.721Z,101210.13
2022-10-31T07:32:56.425Z,101213.56
2022-10-31T07:35:27.861Z,101220.31
2022-10-31T07:38:00.420Z,101218.19
2022-10-31T07:40:29.559Z,101212.88
2022-10-31T07:43:00.088Z,101215.44
2022-10-31T07:46:04.704Z,101211.69
2022-10-31T07:48:51.005Z,101210.38
2022-10-31T07:51:37.255Z,101214.00
2022-10-31T07:54:28.607Z,101214.84
2022-10-31T07:56:56.542Z,101213.16
2022-10-31T07:59:26.777Z,101210.81
2022-10-31T08:01:55.674Z,101206.19
2022-10-31T08:04:32.269Z,101201.84
2022-10-31T08:07:18.965Z,101206.53
2022-10-31T08:09:54.510Z,101205.22
2022-10-31T08:12:26.491Z,101210.38
2022-10-31T08:14:56.697Z,101208.50
2022-10-31T08:17:24.799Z,101213.22
2022-10-31T08:19:56.622Z,101200.84
2022-10-31T08:22:41.193Z,101208.13
2022-10-31T08:25:11.860Z,101200.84
2022-10-31T08:27:40.617Z,101200.84
2022-10-31T08:30:16.114Z,101202.00
2022-10-31T08:33:02.556Z,101198.19
2022-10-31T08:35:49.455Z,101201.69
2022-10-31T08:38:46.290Z,101200.41
2022-10-31T08:41:14.927Z,101202.19
2022-10-31T08:43:43.146Z,101208.63
2022-10-31T08:46:12.759Z,101208.03
2022-10-31T08:48:42.326Z,101207.16
2022-10-31T08:51:11.979Z,101208.72
2022-10-31T08:53:39.918Z,101205.44
2022-10-31T08:56:36.614Z,101203.50
2022-10-31T08:59:11.415Z,101203.13
2022-10-31T09:01:56.408Z,101202.78
2022-10-31T09:04:25.119Z,101208.69
2022-10-31T09:09:41.102Z,101204.00
2022-10-31T09:12:09.265Z,101204.53
2022-10-31T09:14:49.738Z,101202.19
2022-10-31T09:17:33.481Z,101205.72
2022-10-31T09:20:27.717Z,101211.03
2022-10-31T09:23:00.623Z,101205.38
2022-10-31T09:25:30.587Z,101197.66
2022-10-31T09:28:21.029Z,101200.13
2022-10-31T09:30:50.124Z,101201.69
2022-10-31T09:33:26.740Z,101201.22
2022-10-31T09:36:14.687Z,101199.84
2022-10-31T09:38:43.348Z,101203.09
2022-10-31T09:41:21.713Z,101203.09
2022-10-31T09:43:57.834Z,101209.63
2022-10-31T09:46:34.407Z,101209.56
2022-10-31T09:49:26.756Z,101204.53
2022-10-31T09:52:00.977Z,101211.84
2022-10-31T09:54:39.083Z,101208.38
2022-10-31T09:57:12.869Z,101217.41
2022-10-31T09:59:44.012Z,101210.19
2022-10-31T10:02:18.813Z,101209.97
2022-10-31T10:04:55.310Z,101209.34
2022-10-31T10:07:44.214Z,101211.75
2022-10-31T10:10:24.433Z,101209.44
2022-10-31T10:13:24.325Z,101200.91
2022-10-31T10:16:05.853Z,101213.91
2022-10-31T10:18:45.729Z,101212.72
2022-10-31T10:21:26.453Z,101204.47
2022-10-31T10:24:11.330Z,101203.38
2022-10-31T10:26:43.687Z,101203.06
2022-10-31T10:29:31.286Z,101201.03
2022-10-31T10:32:03.623Z,101205.53
2022-10-31T10:34:39.369Z,101204.56
2022-10-31T10:37:22.743Z,101203.94
2022-10-31T10:39:56.152Z,101197.75
2022-10-31T10:42:44.906Z,101201.88
2022-10-31T10:45:34.104Z,101192.56
2022-10-31T10:48:11.054Z,101190.38
2022-10-31T10:50:44.186Z,101194.69
2022-10-31T10:53:33.066Z,101185.50
2022-10-31T10:56:05.322Z,101182.75
2022-10-31T10:58:33.413Z,101181.75
2022-10-31T11:01:01.510Z,101175.72
2022-10-31T11:03:29.737Z,101176.16
2022-10-31T11:05:59.863Z,101172.25
2022-10-31T11:08:30.991Z,101174.50
2022-10-31T11:11:03.027Z,101173.47
2022-10-31T11:13:32.165Z,101176.16
2022-10-31T11:16:01.336Z,101172.03
2022-10-31T11:18:32.189Z,101167.97
2022-10-31T11:21:02.248Z,101169.00
2022-10-31T11:23:32.233Z,101162.34
2022-10-31T11:26:03.469Z,101160.66
2022-10-31T11:28:35.287Z,101156.72
2022-10-31T11:31:08.818Z,101152.28
2022-10-31T11:33:39.857Z,101156.22
2022-10-31T11:36:23.299Z,101137.22
2022-10-31T11:38:54.003Z,101136.19
2022-10-31T11:41:28.175Z,101138.88
2022-10-31T11:43:59.549Z,101129.66
2022-10-31T11:46:35.436Z,101119.09
2022-10-31T11:49:05.617Z,101107.81
2022-10-31T11:51:36.885Z,101113.66
2022-10-31T11:54:07.720Z,101109.78
2022-10-31T11:56:44.871Z,101107.66
2022-10-31T11:59:20.838Z,101105.69
2022-10-31T12:01:50.739Z,101087.66
2022-10-31T12:04:20.342Z,101095.75
2022-10-31T12:06:51.043Z,101091.59
2022-10-31T12:09:25.567Z,101083.97
2022-10-31T12:12:07.659Z,101084.41
2022-10-31T12:14:45.865Z,101089.50
2022-10-31T12:17:18.024Z,101082.72
2022-10-31T12:19:57.114Z,101081.38
2022-10-31T12:22:33.193Z,101088.44
2022-10-31T12:25:24.275Z,101085.88
2022-10-31T12:28:04.675Z,101082.41
2022-10-31T12:30:48.968Z,101077.69
2022-10-31T12:33:32.256Z,101088.69
2022-10-31T12:36:28.305Z,101090.00
2022-10-31T12:39:26.979Z,101092.44
2022-10-31T12:42:03.976Z,101086.50
2022-10-31T12:44:53.224Z,101093.13
2022-10-31T12:47:42.475Z,101086.59
2022-10-31T12:50:37.386Z,101088.69
2022-10-31T12:56:07.335Z,101089.44
2022-10-31T12:58:40.813Z,101090.16
2022-10-31T13:01:21.264Z,101093.75
2022-10-31T13:03:54.019Z,101093.97
2022-10-31T13:06:26.728Z,101094.88
2022-10-31T13:08:58.120Z,101087.44
2022-10-31T13:11:31.923Z,101089.13
2022-10-31T13:14:07.555Z,101093.94
2022-10-31T13:16:39.907Z,101087.28
2022-10-31T13:19:15.968Z,101088.31
2022-10-31T13:21:53.793Z,101079.78
2022-10-31T13:24:26.149Z,101083.31
2022-10-31T13:26:57.007Z,101082.84
2022-10-31T13:29:33.215Z,101081.28
2022-10-31T13:32:02.568Z,101080.00
2022-10-31T13:34:39.609Z,101081.13
2022-10-31T13:37:18.061Z,101083.44
2022-10-31T13:39:50.850Z,101071.56
2022-10-31T13:42:25.321Z,101074.41
2022-10-31T13:44:54.821Z,101064.53
2022-10-31T13:47:25.963Z,101063.91
2022-10-31T13:49:54.088Z,101064.56
2022-10-31T13:52:26.421Z,101062.03
2022-10-31T13:54:57.883Z,101063.81
2022-10-31T13:57:35.295Z,101060.38
2022-10-31T14:00:09.199Z,101061.69
2022-10-31T14:02:50.001Z,101070.47
2022-10-31T14:05:25.055Z,101063.03
2022-10-31T14:07:54.608Z,101062.44
2022-10-31T14:10:28.444Z,101059.53
2022-10-31T14:13:05.837Z,101053.59
2022-10-31T14:15:36.317Z,101059.72
2022-10-31T14:18:07.464Z,101059.31
2022-10-31T14:20:39.981Z,101062.50
2022-10-31T14:23:34.111Z,101062.28
2022-10-31T14:26:32.204Z,101055.72
2022-10-31T14:29:02.295Z,101065.25
2022-10-31T14:31:37.509Z,101059.50
2022-10-31T14:34:21.580Z,101060.97
2022-10-31T14:37:20.685Z,101063.63
2022-10-31T14:40:03.389Z,101061.91
2022-10-31T14:42:49.406Z,101070.66
2022-10-31T14:45:30.589Z,101069.72
2022-10-31T14:48:11.247Z,101076.94
2022-10-31T14:50:49.288Z,101074.53
2022-10-31T14:53:22.944Z,101064.13
2022-10-31T14:55:54.453Z,101073.94
2022-10-31T14:58:39.206Z,101065.69
2022-10-31T15:01:08.612Z,101065.56
2022-10-31T15:03:44.763Z,101069.56
2022-10-31T15:06:23.538Z,101066.97
2022-10-31T15:08:53.398Z,101063.78
2022-10-31T15:11:24.178Z,101057.75
2022-10-31T15:13:54.105Z,101061.72
2022-10-31T15:16:25.091Z,101055.06
2022-10-31T15:19:01.731Z,101057.28
2022-10-31T15:21:30.900Z,101066.53
2022-10-31T15:24:00.899Z,101066.16
2022-10-31T15:26:33.338Z,101054.88
2022-10-31T15:29:03.168Z,101057.75
2022-10-31T15:31:32.591Z,101062.69
2022-10-31T15:34:05.451Z,101051.13
2022-10-31T15:36:37.350Z,101061.28
2022-10-31T15:39:06.569Z,101068.50
2022-10-31T15:41:37.287Z,101059.66
2022-10-31T15:44:14.903Z,101068.50
2022-10-31T15:46:43.438Z,101071.00
2022-10-31T15:49:30.405Z,101079.63
2022-10-31T15:52:00.950Z,101082.78
2022-10-31T15:54:30.404Z,101078.91
2022-10-31T15:56:58.395Z,101077.72
2022-10-31T15:59:30.975Z,101082.03
2022-10-31T16:02:03.586Z,101088.06
2022-10-31T16:04:33.056Z,101083.25
2022-10-31T16:07:03.621Z,101082.94
2022-10-31T16:09:31.623Z,101076.44
2022-10-31T16:12:00.566Z,101092.91
2022-10-31T16:14:30.218Z,101086.94
2022-10-31T16:17:00.958Z,101080.94
2022-10-31T16:19:33.874Z,101089.19
2022-10-31T16:22:07.446Z,101089.53
2022-10-31T16:24:40.093Z,101094.81
2022-10-31T16:27:17.906Z,101098.59
2022-10-31T16:29:47.943Z,101104.91
2022-10-31T16:32:30.708Z,101103.22
2022-10-31T16:35:20.014Z,101097.91
2022-10-31T16:37:47.983Z,101106.47
2022-10-31T16:40:16.727Z,101107.50
2022-10-31T16:42:46.364Z,101103.69
2022-10-31T16:45:18.806Z,101106.78
2022-10-31T16:47:47.089Z,101110.19
2022-10-31T16:50:19.390Z,101105.56
2022-10-31T16:55:36.782Z,101110.81
2022-10-31T16:58:04.853Z,101110.63
2022-10-31T17:00:32.857Z,101110.78
2022-10-31T17:03:01.281Z,101111.97
2022-10-31T17:05:32.939Z,101118.97
2022-10-31T17:08:01.479Z,101124.97
2022-10-31T17:10:29.728Z,101122.56
2022-10-31T17:13:00.097Z,101119.97
2022-10-31T17:15:29.856Z,101125.31
2022-10-31T17:17:58.634Z,101123.38
2022-10-31T17:20:27.699Z,101132.31
2022-10-31T17:22:57.728Z,101125.16
2022-10-31T17:25:27.945Z,101130.25
2022-10-31T17:27:56.066Z,101123.09
2022-10-31T17:30:24.449Z,101133.84
2022-10-31T17:32:53.427Z,101132.78
2022-10-31T17:35:21.366Z,101130.19
2022-10-31T17:37:49.880Z,101144.00
2022-10-31T17:40:22.019Z,101142.75
2022-10-31T17:42:53.821Z,101136.22
2022-10-31T17:45:22.722Z,101139.28
2022-10-31T17:47:51.679Z,101139.91
2022-10-31T17:50:20.063Z,101143.19
2022-10-31T17:52:49.082Z,101141.53
2022-10-31T17:55:17.329Z,101148.50
2022-10-31T17:57:47.177Z,101133.13
2022-10-31T18:00:17.360Z,101134.41
2022-10-31T18:02:45.609Z,101131.28
2022-10-31T18:05:13.773Z,101130.75
2022-10-31T18:07:41.746Z,101128.66
2022-10-31T18:10:10.719Z,101132.25
2022-10-31T18:12:39.062Z,101130.56
2022-10-31T18:15:09.431Z,101129.66
2022-10-31T18:17:41.054Z,101124.53
2022-10-31T18:20:11.360Z,101122.25
2022-10-31T18:22:39.571Z,101124.38
2022-10-31T18:25:09.356Z,101123.59
2022-10-31T18:27:37.371Z,101126.19
2022-10-31T18:30:06.236Z,101124.47
2022-10-31T18:32:36.461Z,101123.06
2022-10-31T18:35:05.971Z,101127.38
2022-10-31T18:37:34.071Z,101124.25
2022-10-31T18:40:02.047Z,101124.69
2022-10-31T18:42:30.027Z,101123.13
2022-10-31T18:45:00.265Z,101116.06
2022-10-31T18:47:37.324Z,101124.16
2022-10-31T18:50:05.899Z,101124.78
2022-10-31T18:52:33.860Z,101124.94
2022-10-31T18:55:01.808Z,101130.59
2022-10-31T18:57:29.936Z,101130.06
2022-10-31T18:59:57.950Z,101125.59
2022-10-31T19:02:26.012Z,101122.19
2022-10-31T19:04:55.485Z,101121.50
2022-10-31T19:07:23.769Z,101129.25
2022-10-31T19:09:51.789Z,101125.13
2022-10-31T19:12:19.723Z,101126.13
2022-10-31T19:14:50.720Z,101129.03
2022-10-31T19:17:21.444Z,101129.78
2022-10-31T19:19:49.422Z,101127.22
2022-10-31T19:22:18.740Z,101131.78
2022-10-31T19:24:46.700Z,101129.75
2022-10-31T19:27:14.821Z,101133.63
2022-10-31T19:29:43.222Z,101139.94
2022-10-31T19:32:11.177Z,101132.19
2022-10-31T19:34:39.113Z,101132.38
2022-10-31T19:37:07.063Z,101135.41
2022-10-31T19:39:41.206Z,101139.41
2022-10-31T19:42:11.861Z,101138.63
2022-10-31T19:44:39.840Z,101143.34
2022-10-31T19:47:07.774Z,101146.41
2022-10-31T19:49:35.710Z,101147.25
2022-10-31T19:52:03.705Z,101140.38
2022-10-31T19:54:32.158Z,101136.09
2022-10-31T19:57:02.343Z,101138.56
2022-10-31T19:59:32.944Z,101121.81
2022-10-31T20:02:04.693Z,101140.44
2022-10-31T20:04:34.120Z,101139.09
2022-10-31T20:07:02.084Z,101136.09
2022-10-31T20:09:30.008Z,101134.97
2022-10-31T20:11:57.977Z,101141.28
2022-10-31T20:14:27.290Z,101137.59
2022-10-31T20:16:55.316Z,101142.44
2022-10-31T20:19:24.232Z,101147.03
2022-10-31T20:21:52.126Z,101151.63
2022-10-31T20:24:20.544Z,101149.50
2022-10-31T20:26:48.519Z,101147.34
2022-10-31T20:29:16.920Z,101137.75
2022-10-31T20:31:47.514Z,101140.94
2022-10-31T20:34:15.971Z,101140.94
2022-10-31T20:36:43.947Z,101136.78
2022-10-31T20:39:11.964Z,101133.78
2022-10-31T20:41:40.090Z,101139.38
2022-10-31T20:44:08.264Z,101138.53
2022-10-31T20:46:36.355Z,101134.81
2022-10-31T20:49:05.737Z,101147.41
2022-10-31T20:51:33.870Z,101138.81
2022-10-31T20:54:02.178Z,101139.69
2022-10-31T20:56:30.642Z,101142.53
2022-10-31T20:58:59.111Z,101145.13
2022-10-31T21:01:28.892Z,101151.16
2022-10-31T21:03:58.661Z,101144.84
2022-10-31T21:06:28.980Z,101142.13
2022-10-31T21:08:57.605Z,101142.13
2022-10-31T21:11:27.698Z,101155.44
2022-10-31T21:13:56.042Z,101151.84
2022-10-31T21:16:26.243Z,101152.28
2022-10-31T21:18:54.619Z,101143.25
2022-10-31T21:21:29.220Z,101150.56
2022-10-31T21:24:04.054Z,101150.22
2022-10-31T21:26:34.518Z,101149.44
2022-10-31T21:29:03.400Z,101149.00
2022-10-31T21:31:31.617Z,101149.00
2022-10-31T21:33:59.831Z,101146.69
2022-10-31T21:36:27.924Z,101140.97
2022-10-31T21:38:57.025Z,101142.56
2022-10-31T21:41:27.450Z,101142.66
2022-10-31T21:43:56.149Z,101145.94
2022-10-31T21:46:25.758Z,101149.78
2022-10-31T21:48:54.431Z,101148.63
2022-10-31T21:51:24.154Z,101145.75
2022-10-31T21:54:10.273Z,101146.28
2022-10-31T21:56:39.948Z,101143.31
2022-10-31T21:59:08.088Z,101142.59
2022-10-31T22:01:36.952Z,101140.81
2022-10-31T22:04:05.713Z,101143.25
2022-10-31T22:06:33.717Z,101137.66
2022-10-31T22:09:03.681Z,101135.94
2022-10-31T22:11:31.719Z,101143.72
2022-10-31T22:14:01.857Z,101140.84
2022-10-31T22:16:31.367Z,101142.28
2022-10-31T22:19:05.002Z,101143.78
2022-10-31T22:21:37.359Z,101140.69
2022-10-31T22:24:07.682Z,101141.44
2022-10-31T22:26:36.453Z,101139.25
2022-10-31T22:29:07.619Z,101137.66
2022-10-31T22:31:38.387Z,101138.84
2022-10-31T22:34:06.402Z,101133.75
2022-10-31T22:36:34.359Z,101133.34
2022-10-31T22:39:02.463Z,101137.56
2022-10-31T22:41:32.785Z,101129.03
2022-10-31T22:44:01.777Z,101128.69
2022-10-31T22:46:33.420Z,101127.81
2022-10-31T22:49:03.365Z,101126.47
2022-10-31T22:51:33.195Z,101132.94
2022-10-31T22:54:01.235Z,101127.28
2022-10-31T22:56:31.010Z,101128.59
2022-10-31T22:58:59.799Z,101129.47
2022-10-31T23:01:30.257Z,101129.00
2022-10-31T23:04:00.346Z,101116.94
2022-10-31T23:06:31.449Z,101127.44
2022-10-31T23:09:01.091Z,101127.59
2022-10-31T23:11:32.371Z,101125.16
2022-10-31T23:14:09.488Z,101123.69
2022-10-31T23:16:38.569Z,101119.00
2022-10-31T23:19:09.144Z,101115.16
2022-10-31T23:21:57.384Z,101117.56
2022-10-31T23:24:36.736Z,101115.69
2022-10-31T23:27:10.286Z,101116.88
2022-10-31T23:29:44.910Z,101116.44
2022-10-31T23:32:19.178Z,101118.81
2022-10-31T23:34:49.793Z,101118.94
2022-10-31T23:37:19.656Z,101125.06
2022-10-31T23:39:48.521Z,101122.09
2022-10-31T23:42:17.135Z,101114.75
2022-10-31T23:44:45.916Z,101117.34
2022-10-31T23:47:14.460Z,101110.53
2022-10-31T23:49:42.543Z,101116.25
2022-10-31T23:52:12.466Z,101114.91
2022-10-31T23:54:40.993Z,101096.06
2022-10-31T23:57:09.221Z,101111.19
2022-10-31T23:59:37.476Z,101105.03
